Terminal Aerodrome Forecast
Issued by NWS Boise, ID

Home | Current Version | Previous Version | Text Only | Print | Product List | Glossary On
Versions: 1 2 3 4 5 6 7 8 9 10 11 12 13 14 15 16 17 18 19 20 21 22 23 24 25 26 27 28 29 30 31
000
FTUS45 KBOI 202328
TAFBOI
TAF
KBOI 202328Z 2100/2124 32006KT P6SM FEW100 BKN150
     FM210900 14010KT P6SM -SHRA OVC050
     FM211300 31012G22KT P6SM -RA OVC040
     FM211800 30015G25KT P6SM VCSH BKN060
     FM212200 31010KT P6SM SCT060=

USA.gov is the U.S. government's official web portal to all federal, state and local government web resources and services.